sensor_id;sensor_type;location;lat;lon;timestamp;temperature;humidity
58993;DHT22;44782;0.000;0.000;2023-02-23T00:00:46;15.20;58.20
58993;DHT22;44782;0.000;0.000;2023-02-23T00:03:02;15.20;58.10
58993;DHT22;44782;0.000;0.000;2023-02-23T00:05:17;15.20;58.10
58993;DHT22;44782;0.000;0.000;2023-02-23T00:07:34;15.20;58.10
58993;DHT22;44782;0.000;0.000;2023-02-23T00:09:51;15.10;58.70
58993;DHT22;44782;0.000;0.000;2023-02-23T00:12:07;15.20;58.10
58993;DHT22;44782;0.000;0.000;2023-02-23T00:14:27;15.20;58.10
58993;DHT22;44782;0.000;0.000;2023-02-23T00:16:43;15.20;58.10
58993;DHT22;44782;0.000;0.000;2023-02-23T00:18:59;15.10;57.90
58993;DHT22;44782;0.000;0.000;2023-02-23T00:21:16;15.10;57.90
58993;DHT22;44782;0.000;0.000;2023-02-23T00:23:32;15.10;58.00
58993;DHT22;44782;0.000;0.000;2023-02-23T00:25:48;15.10;58.10
58993;DHT22;44782;0.000;0.000;2023-02-23T00:28:04;15.00;58.10
58993;DHT22;44782;0.000;0.000;2023-02-23T00:30:21;15.00;58.10
58993;DHT22;44782;0.000;0.000;2023-02-23T00:32:37;15.00;58.20
58993;DHT22;44782;0.000;0.000;2023-02-23T00:34:53;14.90;58.10
58993;DHT22;44782;0.000;0.000;2023-02-23T00:37:08;15.00;58.10
58993;DHT22;44782;0.000;0.000;2023-02-23T00:39:26;14.90;58.10
58993;DHT22;44782;0.000;0.000;2023-02-23T00:41:44;14.90;58.00
58993;DHT22;44782;0.000;0.000;2023-02-23T00:44:00;15.00;58.10
58993;DHT22;44782;0.000;0.000;2023-02-23T00:46:18;15.00;58.10
58993;DHT22;44782;0.000;0.000;2023-02-23T00:48:35;14.90;58.00
58993;DHT22;44782;0.000;0.000;2023-02-23T00:50:58;14.90;58.10
58993;DHT22;44782;0.000;0.000;2023-02-23T00:53:14;14.90;57.90
58993;DHT22;44782;0.000;0.000;2023-02-23T00:55:30;14.90;58.10
58993;DHT22;44782;0.000;0.000;2023-02-23T00:57:46;14.90;58.00
58993;DHT22;44782;0.000;0.000;2023-02-23T01:00:06;14.90;58.00
58993;DHT22;44782;0.000;0.000;2023-02-23T01:02:43;14.80;58.60
58993;DHT22;44782;0.000;0.000;2023-02-23T01:04:58;14.80;58.00
58993;DHT22;44782;0.000;0.000;2023-02-23T01:07:14;14.80;58.00
58993;DHT22;44782;0.000;0.000;2023-02-23T01:09:30;14.80;58.00
58993;DHT22;44782;0.000;0.000;2023-02-23T01:11:46;14.80;57.90
58993;DHT22;44782;0.000;0.000;2023-02-23T01:14:02;14.80;57.90
58993;DHT22;44782;0.000;0.000;2023-02-23T01:16:21;14.80;57.90
58993;DHT22;44782;0.000;0.000;2023-02-23T01:18:38;14.80;57.80
58993;DHT22;44782;0.000;0.000;2023-02-23T01:20:54;14.80;57.90
58993;DHT22;44782;0.000;0.000;2023-02-23T01:23:13;14.70;57.90
58993;DHT22;44782;0.000;0.000;2023-02-23T01:25:29;14.70;57.80
58993;DHT22;44782;0.000;0.000;2023-02-23T01:27:45;14.70;57.80
58993;DHT22;44782;0.000;0.000;2023-02-23T01:30:01;14.70;57.80
58993;DHT22;44782;0.000;0.000;2023-02-23T01:32:16;14.70;57.80
58993;DHT22;44782;0.000;0.000;2023-02-23T01:34:32;14.70;57.80
58993;DHT22;44782;0.000;0.000;2023-02-23T01:36:48;14.70;57.80
58993;DHT22;44782;0.000;0.000;2023-02-23T01:39:06;14.70;57.80
58993;DHT22;44782;0.000;0.000;2023-02-23T01:41:23;14.70;57.80
58993;DHT22;44782;0.000;0.000;2023-02-23T01:43:59;14.70;57.80
58993;DHT22;44782;0.000;0.000;2023-02-23T01:46:16;14.70;57.60
58993;DHT22;44782;0.000;0.000;2023-02-23T01:48:35;14.60;57.70
58993;DHT22;44782;0.000;0.000;2023-02-23T01:51:12;14.70;57.70
58993;DHT22;44782;0.000;0.000;2023-02-23T01:53:33;14.70;57.60
58993;DHT22;44782;0.000;0.000;2023-02-23T01:55:52;14.60;57.70
58993;DHT22;44782;0.000;0.000;2023-02-23T01:58:16;14.60;57.70
58993;DHT22;44782;0.000;0.000;2023-02-23T02:00:34;14.60;57.60
58993;DHT22;44782;0.000;0.000;2023-02-23T02:02:51;14.60;57.70
58993;DHT22;44782;0.000;0.000;2023-02-23T02:05:07;14.60;57.60
58993;DHT22;44782;0.000;0.000;2023-02-23T02:09:55;14.60;57.60
58993;DHT22;44782;0.000;0.000;2023-02-23T02:12:32;14.50;57.60
58993;DHT22;44782;0.000;0.000;2023-02-23T02:14:48;14.50;57.70
58993;DHT22;44782;0.000;0.000;2023-02-23T02:22:40;14.50;57.30
58993;DHT22;44782;0.000;0.000;2023-02-23T02:30:47;14.50;57.40
58993;DHT22;44782;0.000;0.000;2023-02-23T02:38:19;14.40;57.60
58993;DHT22;44782;0.000;0.000;2023-02-23T02:40:51;14.40;57.60
58993;DHT22;44782;0.000;0.000;2023-02-23T02:46:34;14.40;57.30
58993;DHT22;44782;0.000;0.000;2023-02-23T02:49:08;14.40;57.50
58993;DHT22;44782;0.000;0.000;2023-02-23T02:51:47;14.40;57.50
58993;DHT22;44782;0.000;0.000;2023-02-23T02:56:39;14.40;57.50
58993;DHT22;44782;0.000;0.000;2023-02-23T02:58:56;14.40;57.60
58993;DHT22;44782;0.000;0.000;2023-02-23T03:01:13;14.30;57.60
58993;DHT22;44782;0.000;0.000;2023-02-23T03:03:48;14.40;57.50
58993;DHT22;44782;0.000;0.000;2023-02-23T03:06:45;14.30;57.50
58993;DHT22;44782;0.000;0.000;2023-02-23T03:21:05;14.30;57.50
58993;DHT22;44782;0.000;0.000;2023-02-23T03:27:19;14.30;57.40
58993;DHT22;44782;0.000;0.000;2023-02-23T03:30:05;14.20;57.40
58993;DHT22;44782;0.000;0.000;2023-02-23T03:32:55;14.20;57.50
58993;DHT22;44782;0.000;0.000;2023-02-23T03:38:35;14.20;57.40
58993;DHT22;44782;0.000;0.000;2023-02-23T03:41:12;14.20;57.40
58993;DHT22;44782;0.000;0.000;2023-02-23T03:44:00;14.20;57.50
58993;DHT22;44782;0.000;0.000;2023-02-23T03:46:36;14.20;57.40
58993;DHT22;44782;0.000;0.000;2023-02-23T03:49:12;14.20;57.50
58993;DHT22;44782;0.000;0.000;2023-02-23T03:51:51;14.20;57.50
58993;DHT22;44782;0.000;0.000;2023-02-23T03:54:32;14.20;57.40
58993;DHT22;44782;0.000;0.000;2023-02-23T03:57:09;14.20;57.40
58993;DHT22;44782;0.000;0.000;2023-02-23T03:59:54;14.20;57.40
58993;DHT22;44782;0.000;0.000;2023-02-23T04:02:30;14.10;57.30
58993;DHT22;44782;0.000;0.000;2023-02-23T04:05:10;14.10;57.40
58993;DHT22;44782;0.000;0.000;2023-02-23T04:07:46;14.10;57.40
58993;DHT22;44782;0.000;0.000;2023-02-23T04:10:22;14.10;57.40
58993;DHT22;44782;0.000;0.000;2023-02-23T04:13:10;14.10;57.40
58993;DHT22;44782;0.000;0.000;2023-02-23T04:15:40;14.20;57.30
58993;DHT22;44782;0.000;0.000;2023-02-23T04:17:56;14.10;57.30
58993;DHT22;44782;0.000;0.000;2023-02-23T04:20:13;14.10;57.40
58993;DHT22;44782;0.000;0.000;2023-02-23T04:22:28;14.10;57.30
58993;DHT22;44782;0.000;0.000;2023-02-23T04:24:44;14.10;57.30
58993;DHT22;44782;0.000;0.000;2023-02-23T04:27:03;14.10;57.40
58993;DHT22;44782;0.000;0.000;2023-02-23T04:29:19;14.10;57.30
58993;DHT22;44782;0.000;0.000;2023-02-23T04:31:34;14.10;57.30
58993;DHT22;44782;0.000;0.000;2023-02-23T04:33:50;14.10;57.30
58993;DHT22;44782;0.000;0.000;2023-02-23T04:36:06;14.10;57.30
58993;DHT22;44782;0.000;0.000;2023-02-23T04:38:22;14.10;57.30
58993;DHT22;44782;0.000;0.000;2023-02-23T04:40:38;14.10;57.30
58993;DHT22;44782;0.000;0.000;2023-02-23T04:42:53;14.00;57.20
58993;DHT22;44782;0.000;0.000;2023-02-23T04:45:10;14.10;57.20
58993;DHT22;44782;0.000;0.000;2023-02-23T04:47:26;14.10;57.20
58993;DHT22;44782;0.000;0.000;2023-02-23T04:49:42;14.00;57.20
58993;DHT22;44782;0.000;0.000;2023-02-23T04:51:58;14.00;57.20
58993;DHT22;44782;0.000;0.000;2023-02-23T04:54:14;14.00;57.20
58993;DHT22;44782;0.000;0.000;2023-02-23T04:56:30;14.00;57.20
58993;DHT22;44782;0.000;0.000;2023-02-23T04:58:45;14.00;57.10
58993;DHT22;44782;0.000;0.000;2023-02-23T05:01:06;14.00;57.20
58993;DHT22;44782;0.000;0.000;2023-02-23T05:03:23;14.00;57.10
58993;DHT22;44782;0.000;0.000;2023-02-23T05:05:39;14.00;57.20
58993;DHT22;44782;0.000;0.000;2023-02-23T05:07:55;14.00;57.20
58993;DHT22;44782;0.000;0.000;2023-02-23T05:10:12;14.00;57.20
58993;DHT22;44782;0.000;0.000;2023-02-23T05:12:27;14.00;57.20
58993;DHT22;44782;0.000;0.000;2023-02-23T05:14:43;14.00;57.20
58993;DHT22;44782;0.000;0.000;2023-02-23T05:16:59;14.00;57.10
58993;DHT22;44782;0.000;0.000;2023-02-23T05:19:14;14.00;57.10
58993;DHT22;44782;0.000;0.000;2023-02-23T05:21:30;14.00;57.10
58993;DHT22;44782;0.000;0.000;2023-02-23T05:23:46;14.00;57.10
58993;DHT22;44782;0.000;0.000;2023-02-23T05:26:08;14.00;57.10
58993;DHT22;44782;0.000;0.000;2023-02-23T05:28:24;13.90;57.00
58993;DHT22;44782;0.000;0.000;2023-02-23T05:30:39;14.00;57.10
58993;DHT22;44782;0.000;0.000;2023-02-23T05:32:55;13.90;57.10
58993;DHT22;44782;0.000;0.000;2023-02-23T05:35:10;13.90;57.00
58993;DHT22;44782;0.000;0.000;2023-02-23T05:37:27;13.90;57.10
58993;DHT22;44782;0.000;0.000;2023-02-23T05:39:42;13.90;57.10
58993;DHT22;44782;0.000;0.000;2023-02-23T05:41:58;13.90;57.10
58993;DHT22;44782;0.000;0.000;2023-02-23T05:44:14;13.90;57.00
58993;DHT22;44782;0.000;0.000;2023-02-23T05:46:29;13.90;57.00
58993;DHT22;44782;0.000;0.000;2023-02-23T05:48:45;13.90;57.10
58993;DHT22;44782;0.000;0.000;2023-02-23T05:51:02;13.90;57.00
58993;DHT22;44782;0.000;0.000;2023-02-23T05:53:18;13.90;57.10
58993;DHT22;44782;0.000;0.000;2023-02-23T05:55:35;13.90;57.00
58993;DHT22;44782;0.000;0.000;2023-02-23T05:57:50;13.90;57.10
58993;DHT22;44782;0.000;0.000;2023-02-23T06:00:07;13.90;57.00
58993;DHT22;44782;0.000;0.000;2023-02-23T06:02:23;13.90;57.00
58993;DHT22;44782;0.000;0.000;2023-02-23T06:04:39;14.00;57.00
58993;DHT22;44782;0.000;0.000;2023-02-23T06:06:57;14.00;57.00
58993;DHT22;44782;0.000;0.000;2023-02-23T06:09:13;14.00;57.00
58993;DHT22;44782;0.000;0.000;2023-02-23T06:11:29;14.00;56.90
58993;DHT22;44782;0.000;0.000;2023-02-23T06:13:45;14.00;56.90
58993;DHT22;44782;0.000;0.000;2023-02-23T06:16:01;14.00;56.90
58993;DHT22;44782;0.000;0.000;2023-02-23T06:18:16;14.00;56.90
58993;DHT22;44782;0.000;0.000;2023-02-23T06:20:32;14.10;56.90
58993;DHT22;44782;0.000;0.000;2023-02-23T06:22:48;14.10;56.80
58993;DHT22;44782;0.000;0.000;2023-02-23T06:25:03;14.10;56.80
58993;DHT22;44782;0.000;0.000;2023-02-23T06:27:20;14.10;56.80
58993;DHT22;44782;0.000;0.000;2023-02-23T06:29:35;14.10;56.70
58993;DHT22;44782;0.000;0.000;2023-02-23T06:31:52;14.10;56.70
58993;DHT22;44782;0.000;0.000;2023-02-23T06:34:09;14.10;56.70
58993;DHT22;44782;0.000;0.000;2023-02-23T06:36:25;14.10;56.60
58993;DHT22;44782;0.000;0.000;2023-02-23T06:38:41;14.20;56.60
58993;DHT22;44782;0.000;0.000;2023-02-23T06:40:57;14.20;56.50
58993;DHT22;44782;0.000;0.000;2023-02-23T06:43:12;14.20;56.50
58993;DHT22;44782;0.000;0.000;2023-02-23T06:45:28;14.20;56.50
58993;DHT22;44782;0.000;0.000;2023-02-23T06:47:44;14.20;56.40
58993;DHT22;44782;0.000;0.000;2023-02-23T06:50:00;14.20;56.30
58993;DHT22;44782;0.000;0.000;2023-02-23T06:52:17;14.20;56.30
58993;DHT22;44782;0.000;0.000;2023-02-23T06:54:33;14.20;56.30
58993;DHT22;44782;0.000;0.000;2023-02-23T06:56:49;14.20;56.30
58993;DHT22;44782;0.000;0.000;2023-02-23T06:59:05;14.10;56.20
58993;DHT22;44782;0.000;0.000;2023-02-23T07:01:20;14.10;56.40
58993;DHT22;44782;0.000;0.000;2023-02-23T07:03:36;14.20;56.40
58993;DHT22;44782;0.000;0.000;2023-02-23T07:05:52;14.20;56.40
58993;DHT22;44782;0.000;0.000;2023-02-23T07:08:08;14.20;56.30
58993;DHT22;44782;0.000;0.000;2023-02-23T07:10:24;14.20;56.30
58993;DHT22;44782;0.000;0.000;2023-02-23T07:12:40;14.20;56.30
58993;DHT22;44782;0.000;0.000;2023-02-23T07:14:56;14.20;56.30
58993;DHT22;44782;0.000;0.000;2023-02-23T07:17:11;14.20;56.20
58993;DHT22;44782;0.000;0.000;2023-02-23T07:19:27;14.20;56.20
58993;DHT22;44782;0.000;0.000;2023-02-23T07:21:43;14.10;56.20
58993;DHT22;44782;0.000;0.000;2023-02-23T07:23:59;14.20;56.20
58993;DHT22;44782;0.000;0.000;2023-02-23T07:26:16;14.20;56.30
58993;DHT22;44782;0.000;0.000;2023-02-23T07:28:32;14.10;56.10
58993;DHT22;44782;0.000;0.000;2023-02-23T07:30:48;14.10;56.20
58993;DHT22;44782;0.000;0.000;2023-02-23T07:33:04;14.20;56.20
58993;DHT22;44782;0.000;0.000;2023-02-23T07:35:20;14.10;56.10
58993;DHT22;44782;0.000;0.000;2023-02-23T07:37:35;14.10;56.10
58993;DHT22;44782;0.000;0.000;2023-02-23T07:39:51;14.10;56.10
58993;DHT22;44782;0.000;0.000;2023-02-23T07:42:07;14.10;56.10
58993;DHT22;44782;0.000;0.000;2023-02-23T07:44:22;14.10;56.10
58993;DHT22;44782;0.000;0.000;2023-02-23T07:46:38;14.10;56.10
58993;DHT22;44782;0.000;0.000;2023-02-23T07:48:54;14.10;56.10
58993;DHT22;44782;0.000;0.000;2023-02-23T07:51:13;14.10;56.10
58993;DHT22;44782;0.000;0.000;2023-02-23T07:53:30;14.10;56.00
58993;DHT22;44782;0.000;0.000;2023-02-23T07:55:54;14.00;56.00
58993;DHT22;44782;0.000;0.000;2023-02-23T07:58:10;14.10;55.90
58993;DHT22;44782;0.000;0.000;2023-02-23T08:00:27;14.00;56.10
58993;DHT22;44782;0.000;0.000;2023-02-23T08:02:43;14.10;56.10
58993;DHT22;44782;0.000;0.000;2023-02-23T08:04:59;14.00;56.00
58993;DHT22;44782;0.000;0.000;2023-02-23T08:07:14;14.00;56.00
58993;DHT22;44782;0.000;0.000;2023-02-23T08:09:30;14.00;56.10
58993;DHT22;44782;0.000;0.000;2023-02-23T08:11:47;14.00;56.00
58993;DHT22;44782;0.000;0.000;2023-02-23T08:14:02;14.00;56.00
58993;DHT22;44782;0.000;0.000;2023-02-23T08:16:18;14.00;56.00
58993;DHT22;44782;0.000;0.000;2023-02-23T08:18:34;14.00;56.10
58993;DHT22;44782;0.000;0.000;2023-02-23T08:20:50;14.00;56.00
58993;DHT22;44782;0.000;0.000;2023-02-23T08:23:11;14.00;56.00
58993;DHT22;44782;0.000;0.000;2023-02-23T08:25:27;14.00;56.00
58993;DHT22;44782;0.000;0.000;2023-02-23T08:27:42;14.00;56.00
58993;DHT22;44782;0.000;0.000;2023-02-23T08:29:58;14.00;56.00
58993;DHT22;44782;0.000;0.000;2023-02-23T08:32:15;14.00;56.00
58993;DHT22;44782;0.000;0.000;2023-02-23T08:34:31;14.00;56.00
58993;DHT22;44782;0.000;0.000;2023-02-23T08:36:46;14.00;56.00
58993;DHT22;44782;0.000;0.000;2023-02-23T08:39:02;14.00;56.00
58993;DHT22;44782;0.000;0.000;2023-02-23T08:41:20;13.90;55.90
58993;DHT22;44782;0.000;0.000;2023-02-23T08:43:36;13.90;55.90
58993;DHT22;44782;0.000;0.000;2023-02-23T08:45:53;13.90;56.20
58993;DHT22;44782;0.000;0.000;2023-02-23T08:48:09;13.90;55.90
58993;DHT22;44782;0.000;0.000;2023-02-23T08:50:25;13.90;55.90
58993;DHT22;44782;0.000;0.000;2023-02-23T08:52:40;13.90;56.00
58993;DHT22;44782;0.000;0.000;2023-02-23T08:54:57;13.90;56.00
58993;DHT22;44782;0.000;0.000;2023-02-23T08:57:12;13.90;56.00
58993;DHT22;44782;0.000;0.000;2023-02-23T08:59:28;13.90;56.00
58993;DHT22;44782;0.000;0.000;2023-02-23T09:01:44;13.90;56.00
58993;DHT22;44782;0.000;0.000;2023-02-23T09:03:59;13.90;56.00
58993;DHT22;44782;0.000;0.000;2023-02-23T09:06:19;13.90;56.00
58993;DHT22;44782;0.000;0.000;2023-02-23T09:08:35;13.90;56.00
58993;DHT22;44782;0.000;0.000;2023-02-23T09:10:51;13.90;56.10
58993;DHT22;44782;0.000;0.000;2023-02-23T09:13:08;13.90;56.00
58993;DHT22;44782;0.000;0.000;2023-02-23T09:15:24;13.80;56.00
58993;DHT22;44782;0.000;0.000;2023-02-23T09:17:40;13.80;56.00
58993;DHT22;44782;0.000;0.000;2023-02-23T09:19:59;13.80;56.00
58993;DHT22;44782;0.000;0.000;2023-02-23T09:22:15;13.80;56.00
58993;DHT22;44782;0.000;0.000;2023-02-23T09:24:32;13.80;56.00
58993;DHT22;44782;0.000;0.000;2023-02-23T09:26:49;13.80;56.00
58993;DHT22;44782;0.000;0.000;2023-02-23T09:29:06;13.80;56.00
58993;DHT22;44782;0.000;0.000;2023-02-23T09:31:22;13.80;56.00
58993;DHT22;44782;0.000;0.000;2023-02-23T09:33:38;13.80;56.00
58993;DHT22;44782;0.000;0.000;2023-02-23T09:35:54;13.80;56.00
58993;DHT22;44782;0.000;0.000;2023-02-23T09:38:10;13.80;56.00
58993;DHT22;44782;0.000;0.000;2023-02-23T09:40:28;13.80;56.00
58993;DHT22;44782;0.000;0.000;2023-02-23T09:43:03;13.80;56.00
58993;DHT22;44782;0.000;0.000;2023-02-23T09:45:32;13.80;55.80
58993;DHT22;44782;0.000;0.000;2023-02-23T09:48:08;13.80;55.90
58993;DHT22;44782;0.000;0.000;2023-02-23T09:50:26;13.80;56.10
58993;DHT22;44782;0.000;0.000;2023-02-23T09:52:46;13.80;56.10
58993;DHT22;44782;0.000;0.000;2023-02-23T09:55:03;13.80;56.10
58993;DHT22;44782;0.000;0.000;2023-02-23T09:57:25;13.80;56.10
58993;DHT22;44782;0.000;0.000;2023-02-23T09:59:44;13.80;56.00
58993;DHT22;44782;0.000;0.000;2023-02-23T10:04:37;13.80;56.00
58993;DHT22;44782;0.000;0.000;2023-02-23T10:20:40;13.70;56.10
58993;DHT22;44782;0.000;0.000;2023-02-23T10:23:03;13.70;56.00
58993;DHT22;44782;0.000;0.000;2023-02-23T10:25:27;13.70;56.00
58993;DHT22;44782;0.000;0.000;2023-02-23T10:27:46;13.70;56.00
58993;DHT22;44782;0.000;0.000;2023-02-23T10:30:03;13.70;56.00
58993;DHT22;44782;0.000;0.000;2023-02-23T10:34:36;13.70;56.10
58993;DHT22;44782;0.000;0.000;2023-02-23T10:37:02;13.70;56.10
58993;DHT22;44782;0.000;0.000;2023-02-23T10:39:18;13.70;55.90
58993;DHT22;44782;0.000;0.000;2023-02-23T10:41:35;13.70;56.00
58993;DHT22;44782;0.000;0.000;2023-02-23T10:43:51;13.70;56.00
58993;DHT22;44782;0.000;0.000;2023-02-23T10:46:16;13.70;56.10
58993;DHT22;44782;0.000;0.000;2023-02-23T10:48:36;13.70;56.00
58993;DHT22;44782;0.000;0.000;2023-02-23T10:50:57;13.70;56.00
58993;DHT22;44782;0.000;0.000;2023-02-23T10:53:25;13.70;56.10
58993;DHT22;44782;0.000;0.000;2023-02-23T10:55:43;13.70;56.00
58993;DHT22;44782;0.000;0.000;2023-02-23T10:58:04;13.60;56.00
58993;DHT22;44782;0.000;0.000;2023-02-23T11:00:27;13.70;56.00
58993;DHT22;44782;0.000;0.000;2023-02-23T11:02:46;13.70;56.00
58993;DHT22;44782;0.000;0.000;2023-02-23T11:05:03;13.70;56.00
58993;DHT22;44782;0.000;0.000;2023-02-23T11:07:30;13.70;56.10
58993;DHT22;44782;0.000;0.000;2023-02-23T11:09:46;13.70;56.00
58993;DHT22;44782;0.000;0.000;2023-02-23T11:12:23;13.70;56.10
58993;DHT22;44782;0.000;0.000;2023-02-23T11:14:40;13.70;56.10
58993;DHT22;44782;0.000;0.000;2023-02-23T11:16:57;13.70;56.20
58993;DHT22;44782;0.000;0.000;2023-02-23T11:19:22;13.70;56.10
58993;DHT22;44782;0.000;0.000;2023-02-23T11:21:38;13.70;56.00
58993;DHT22;44782;0.000;0.000;2023-02-23T11:23:56;13.70;56.80
58993;DHT22;44782;0.000;0.000;2023-02-23T11:26:36;13.70;56.10
58993;DHT22;44782;0.000;0.000;2023-02-23T11:28:56;13.70;55.90
58993;DHT22;44782;0.000;0.000;2023-02-23T11:31:19;13.70;56.10
58993;DHT22;44782;0.000;0.000;2023-02-23T11:33:37;13.70;56.00
58993;DHT22;44782;0.000;0.000;2023-02-23T11:35:59;13.70;56.00
58993;DHT22;44782;0.000;0.000;2023-02-23T11:38:28;13.70;56.00
58993;DHT22;44782;0.000;0.000;2023-02-23T11:40:58;13.70;56.00
58993;DHT22;44782;0.000;0.000;2023-02-23T11:43:14;13.70;55.90
58993;DHT22;44782;0.000;0.000;2023-02-23T11:45:55;13.70;56.00
58993;DHT22;44782;0.000;0.000;2023-02-23T11:48:26;13.70;55.80
58993;DHT22;44782;0.000;0.000;2023-02-23T11:50:44;13.70;55.90
58993;DHT22;44782;0.000;0.000;2023-02-23T11:53:06;13.70;56.00
58993;DHT22;44782;0.000;0.000;2023-02-23T11:55:29;13.80;56.10
58993;DHT22;44782;0.000;0.000;2023-02-23T11:57:45;13.80;56.00
58993;DHT22;44782;0.000;0.000;2023-02-23T12:00:21;13.80;56.70
58993;DHT22;44782;0.000;0.000;2023-02-23T12:02:56;13.80;55.80
58993;DHT22;44782;0.000;0.000;2023-02-23T12:05:25;13.90;55.90
58993;DHT22;44782;0.000;0.000;2023-02-23T12:10:17;13.90;55.80
58993;DHT22;44782;0.000;0.000;2023-02-23T12:13:21;13.90;55.90
58993;DHT22;44782;0.000;0.000;2023-02-23T12:15:42;14.00;55.80
58993;DHT22;44782;0.000;0.000;2023-02-23T12:20:45;14.00;55.80
58993;DHT22;44782;0.000;0.000;2023-02-23T12:23:11;14.00;55.90
58993;DHT22;44782;0.000;0.000;2023-02-23T12:25:41;14.00;55.80
58993;DHT22;44782;0.000;0.000;2023-02-23T12:33:17;14.10;55.70
58993;DHT22;44782;0.000;0.000;2023-02-23T12:38:25;14.10;55.60
58993;DHT22;44782;0.000;0.000;2023-02-23T12:40:48;14.10;55.80
58993;DHT22;44782;0.000;0.000;2023-02-23T12:43:26;14.10;55.80
58993;DHT22;44782;0.000;0.000;2023-02-23T12:45:53;14.20;56.20
58993;DHT22;44782;0.000;0.000;2023-02-23T12:48:37;14.10;55.70
58993;DHT22;44782;0.000;0.000;2023-02-23T12:50:59;14.20;55.50
58993;DHT22;44782;0.000;0.000;2023-02-23T12:53:28;14.20;55.70
58993;DHT22;44782;0.000;0.000;2023-02-23T13:01:17;14.20;55.70
58993;DHT22;44782;0.000;0.000;2023-02-23T13:06:24;14.20;55.50
58993;DHT22;44782;0.000;0.000;2023-02-23T13:16:51;14.20;55.40
58993;DHT22;44782;0.000;0.000;2023-02-23T13:19:34;14.20;55.60
58993;DHT22;44782;0.000;0.000;2023-02-23T13:22:26;14.20;55.50
58993;DHT22;44782;0.000;0.000;2023-02-23T13:24:46;14.20;55.40
58993;DHT22;44782;0.000;0.000;2023-02-23T13:27:15;14.20;55.60
58993;DHT22;44782;0.000;0.000;2023-02-23T13:29:39;14.20;55.50
58993;DHT22;44782;0.000;0.000;2023-02-23T13:31:55;14.20;55.60
58993;DHT22;44782;0.000;0.000;2023-02-23T13:34:15;14.20;55.60
58993;DHT22;44782;0.000;0.000;2023-02-23T13:36:35;14.20;55.50
58993;DHT22;44782;0.000;0.000;2023-02-23T13:39:34;14.20;55.60
58993;DHT22;44782;0.000;0.000;2023-02-23T13:44:33;14.20;55.50
58993;DHT22;44782;0.000;0.000;2023-02-23T13:52:57;14.20;55.40
58993;DHT22;44782;0.000;0.000;2023-02-23T13:54:59;14.10;55.90
58993;DHT22;44782;0.000;0.000;2023-02-23T13:57:20;14.10;55.60
58993;DHT22;44782;0.000;0.000;2023-02-23T13:59:42;14.20;55.60
58993;DHT22;44782;0.000;0.000;2023-02-23T14:02:00;14.20;55.60
58993;DHT22;44782;0.000;0.000;2023-02-23T14:06:38;14.10;55.50
58993;DHT22;44782;0.000;0.000;2023-02-23T14:09:07;14.10;55.60
58993;DHT22;44782;0.000;0.000;2023-02-23T14:11:33;14.10;55.50
58993;DHT22;44782;0.000;0.000;2023-02-23T14:14:01;14.10;55.50
58993;DHT22;44782;0.000;0.000;2023-02-23T14:16:18;14.10;55.40
58993;DHT22;44782;0.000;0.000;2023-02-23T14:18:34;14.10;55.60
58993;DHT22;44782;0.000;0.000;2023-02-23T14:24:12;14.10;55.60
58993;DHT22;44782;0.000;0.000;2023-02-23T14:27:04;14.10;55.70
58993;DHT22;44782;0.000;0.000;2023-02-23T14:29:08;14.10;55.60
58993;DHT22;44782;0.000;0.000;2023-02-23T14:31:29;14.10;55.70
58993;DHT22;44782;0.000;0.000;2023-02-23T14:38:38;14.10;55.50
58993;DHT22;44782;0.000;0.000;2023-02-23T14:40:55;14.00;55.70
58993;DHT22;44782;0.000;0.000;2023-02-23T14:46:00;14.10;55.50
58993;DHT22;44782;0.000;0.000;2023-02-23T14:48:20;14.00;55.70
58993;DHT22;44782;0.000;0.000;2023-02-23T14:50:38;14.00;55.70
58993;DHT22;44782;0.000;0.000;2023-02-23T14:52:56;14.00;55.70
58993;DHT22;44782;0.000;0.000;2023-02-23T14:55:20;14.00;55.60
58993;DHT22;44782;0.000;0.000;2023-02-23T14:57:38;14.00;55.60
58993;DHT22;44782;0.000;0.000;2023-02-23T14:59:59;14.00;55.60
58993;DHT22;44782;0.000;0.000;2023-02-23T15:02:21;14.00;55.60
58993;DHT22;44782;0.000;0.000;2023-02-23T15:04:38;14.00;55.60
58993;DHT22;44782;0.000;0.000;2023-02-23T15:06:57;14.00;55.70
58993;DHT22;44782;0.000;0.000;2023-02-23T15:09:44;14.00;55.70
58993;DHT22;44782;0.000;0.000;2023-02-23T15:12:06;14.00;55.60
58993;DHT22;44782;0.000;0.000;2023-02-23T15:14:25;14.00;55.80
58993;DHT22;44782;0.000;0.000;2023-02-23T15:16:42;14.00;55.70
58993;DHT22;44782;0.000;0.000;2023-02-23T15:19:00;14.00;55.70
58993;DHT22;44782;0.000;0.000;2023-02-23T15:21:19;14.00;55.70
58993;DHT22;44782;0.000;0.000;2023-02-23T15:23:37;14.00;55.70
58993;DHT22;44782;0.000;0.000;2023-02-23T15:25:52;14.00;55.70
58993;DHT22;44782;0.000;0.000;2023-02-23T15:30:33;14.00;55.60
58993;DHT22;44782;0.000;0.000;2023-02-23T15:33:02;13.90;55.70
58993;DHT22;44782;0.000;0.000;2023-02-23T15:35:19;14.00;55.60
58993;DHT22;44782;0.000;0.000;2023-02-23T15:37:43;13.90;55.70
58993;DHT22;44782;0.000;0.000;2023-02-23T15:40:08;13.90;55.60
58993;DHT22;44782;0.000;0.000;2023-02-23T15:42:39;13.90;55.70
58993;DHT22;44782;0.000;0.000;2023-02-23T15:44:59;14.00;55.60
58993;DHT22;44782;0.000;0.000;2023-02-23T15:47:20;13.90;55.70
58993;DHT22;44782;0.000;0.000;2023-02-23T15:49:38;13.90;55.70
58993;DHT22;44782;0.000;0.000;2023-02-23T15:52:00;13.90;55.70
58993;DHT22;44782;0.000;0.000;2023-02-23T15:54:23;13.90;55.70
58993;DHT22;44782;0.000;0.000;2023-02-23T15:56:42;13.90;55.70
58993;DHT22;44782;0.000;0.000;2023-02-23T15:59:07;13.90;55.80
58993;DHT22;44782;0.000;0.000;2023-02-23T16:01:28;13.90;55.70
58993;DHT22;44782;0.000;0.000;2023-02-23T16:04:06;13.90;55.80
58993;DHT22;44782;0.000;0.000;2023-02-23T16:06:25;13.90;55.70
58993;DHT22;44782;0.000;0.000;2023-02-23T16:11:17;13.90;55.70
58993;DHT22;44782;0.000;0.000;2023-02-23T16:13:33;13.80;55.80
58993;DHT22;44782;0.000;0.000;2023-02-23T16:15:52;13.90;55.80
58993;DHT22;44782;0.000;0.000;2023-02-23T16:18:13;13.80;55.80
58993;DHT22;44782;0.000;0.000;2023-02-23T16:20:34;13.90;55.80
58993;DHT22;44782;0.000;0.000;2023-02-23T16:22:52;13.80;55.80
58993;DHT22;44782;0.000;0.000;2023-02-23T16:25:17;13.80;55.80
58993;DHT22;44782;0.000;0.000;2023-02-23T16:27:36;13.90;55.80
58993;DHT22;44782;0.000;0.000;2023-02-23T16:29:57;13.80;55.80
58993;DHT22;44782;0.000;0.000;2023-02-23T16:32:19;13.80;55.80
58993;DHT22;44782;0.000;0.000;2023-02-23T16:34:47;13.80;55.80
58993;DHT22;44782;0.000;0.000;2023-02-23T16:37:22;13.80;55.80
58993;DHT22;44782;0.000;0.000;2023-02-23T16:39:40;13.80;55.80
58993;DHT22;44782;0.000;0.000;2023-02-23T16:41:57;13.80;55.90
58993;DHT22;44782;0.000;0.000;2023-02-23T16:44:17;13.80;55.90
58993;DHT22;44782;0.000;0.000;2023-02-23T16:49:11;13.80;55.80
58993;DHT22;44782;0.000;0.000;2023-02-23T16:51:27;13.80;55.90
58993;DHT22;44782;0.000;0.000;2023-02-23T16:53:43;13.80;56.00
58993;DHT22;44782;0.000;0.000;2023-02-23T16:55:59;13.80;56.00
58993;DHT22;44782;0.000;0.000;2023-02-23T16:58:19;13.80;56.00
58993;DHT22;44782;0.000;0.000;2023-02-23T17:00:36;13.80;55.90
58993;DHT22;44782;0.000;0.000;2023-02-23T17:02:51;13.80;55.90